createdAt,value
2023-04-01T00:02:27.309Z,16.02
2023-04-01T00:04:54.483Z,15.90
2023-04-01T00:07:21.405Z,16.45
2023-04-01T00:09:48.440Z,15.38
2023-04-01T00:12:15.631Z,14.80
2023-04-01T00:14:42.559Z,14.80
2023-04-01T00:17:09.627Z,13.65
2023-04-01T00:19:36.551Z,15.23
2023-04-01T00:22:03.596Z,15.07
2023-04-01T00:24:30.694Z,14.80
2023-04-01T00:26:57.558Z,15.30
2023-04-01T00:29:25.565Z,15.07
2023-04-01T00:31:52.717Z,17.83
2023-04-01T00:34:19.722Z,14.68
2023-04-01T00:36:46.684Z,16.88
2023-04-01T00:39:13.709Z,14.65
2023-04-01T00:41:41.329Z,16.30
2023-04-01T00:44:22.693Z,14.18
2023-04-01T00:46:49.762Z,13.93
2023-04-01T00:49:18.135Z,14.77
2023-04-01T00:51:45.492Z,14.00
2023-04-01T00:54:12.444Z,14.18
2023-04-01T00:57:20.016Z,13.43
2023-04-01T00:59:49.702Z,14.32
2023-04-01T01:02:16.941Z,13.73
2023-04-01T01:04:43.957Z,14.27
2023-04-01T01:07:35.491Z,14.05
2023-04-01T01:10:27.756Z,12.55
2023-04-01T01:13:03.865Z,13.02
2023-04-01T01:15:37.721Z,13.35
2023-04-01T01:18:36.686Z,14.70
2023-04-01T01:21:22.964Z,12.85
2023-04-01T01:23:58.661Z,13.55
2023-04-01T01:26:52.287Z,13.95
2023-04-01T01:29:43.704Z,12.63
2023-04-01T01:32:51.432Z,14.68
2023-04-01T01:35:22.364Z,12.98
2023-04-01T01:37:52.036Z,12.95
2023-04-01T01:40:19.209Z,14.80
2023-04-01T01:42:49.470Z,12.52
2023-04-01T01:45:18.907Z,12.05
2023-04-01T01:47:47.236Z,12.80
2023-04-01T01:50:14.786Z,12.02
2023-04-01T01:52:41.844Z,12.38
2023-04-01T01:55:29.768Z,11.18
2023-04-01T01:58:10.707Z,8.57
2023-04-01T02:03:06.734Z,7.63
2023-04-01T02:05:33.965Z,7.90
2023-04-01T02:08:17.536Z,8.45
2023-04-01T02:10:48.121Z,8.48
2023-04-01T02:13:23.262Z,8.05
2023-04-01T02:15:50.584Z,8.00
2023-04-01T02:18:18.082Z,9.18
2023-04-01T02:20:44.994Z,8.48
2023-04-01T02:23:12.928Z,8.75
2023-04-01T02:25:39.923Z,8.65
2023-04-01T02:28:07.899Z,10.48
2023-04-01T02:30:36.211Z,9.50
2023-04-01T02:33:04.109Z,8.38
2023-04-01T02:35:31.644Z,10.00
2023-04-01T02:37:59.036Z,8.82
2023-04-01T02:40:26.002Z,7.55
2023-04-01T02:42:53.086Z,8.43
2023-04-01T02:45:20.118Z,8.13
2023-04-01T02:47:47.226Z,9.18
2023-04-01T02:50:14.226Z,9.25
2023-04-01T02:52:41.229Z,8.68
2023-04-01T02:55:08.686Z,9.15
2023-04-01T02:57:35.998Z,7.55
2023-04-01T03:00:03.617Z,8.40
2023-04-01T03:02:30.901Z,7.82
2023-04-01T03:04:58.003Z,7.68
2023-04-01T03:07:24.981Z,7.72
2023-04-01T03:09:51.984Z,7.28
2023-04-01T03:12:18.935Z,6.60
2023-04-01T03:17:17.988Z,6.05
2023-04-01T03:19:45.752Z,6.00
2023-04-01T03:22:12.914Z,6.82
2023-04-01T03:24:39.949Z,6.43
2023-04-01T03:27:06.938Z,6.47
2023-04-01T03:29:33.914Z,6.30
2023-04-01T03:32:01.058Z,7.53
2023-04-01T03:34:28.002Z,6.03
2023-04-01T03:36:55.015Z,6.65
2023-04-01T03:39:22.142Z,6.10
2023-04-01T03:41:50.317Z,6.18
2023-04-01T03:44:17.251Z,6.43
2023-04-01T03:46:47.036Z,6.57
2023-04-01T03:49:15.700Z,6.63
2023-04-01T03:51:43.485Z,6.43
2023-04-01T03:54:11.251Z,6.57
2023-04-01T03:56:38.670Z,5.80
2023-04-01T03:59:07.127Z,5.97
2023-04-01T04:01:34.309Z,7.10
2023-04-01T04:04:01.647Z,5.75
2023-04-01T04:06:28.843Z,5.80
2023-04-01T04:08:55.971Z,6.13
2023-04-01T04:11:23.337Z,6.43
2023-04-01T04:13:53.366Z,6.20
2023-04-01T04:16:21.075Z,6.13
2023-04-01T04:18:54.770Z,6.22
2023-04-01T04:21:21.755Z,5.93
2023-04-01T04:23:48.792Z,6.28
2023-04-01T04:26:18.171Z,6.95
2023-04-01T04:28:51.579Z,5.90
2023-04-01T04:31:21.232Z,6.35
2023-04-01T04:33:48.319Z,5.88
2023-04-01T04:36:16.362Z,5.82
2023-04-01T04:38:43.885Z,5.97
2023-04-01T04:41:12.831Z,5.55
2023-04-01T04:43:41.421Z,5.85
2023-04-01T04:46:11.752Z,5.93
2023-04-01T04:48:39.286Z,6.85
2023-04-01T04:51:06.323Z,5.78
2023-04-01T04:53:33.449Z,6.20
2023-04-01T04:56:00.471Z,6.63
2023-04-01T04:58:38.451Z,6.20
2023-04-01T05:01:10.173Z,6.57
2023-04-01T05:03:38.177Z,5.70
2023-04-01T05:06:06.306Z,6.15
2023-04-01T05:08:33.939Z,6.47
2023-04-01T05:11:02.287Z,5.95
2023-04-01T05:13:30.498Z,5.47
2023-04-01T05:15:57.441Z,5.30
2023-04-01T05:18:24.469Z,6.65
2023-04-01T05:20:53.092Z,6.22
2023-04-01T05:23:22.074Z,5.25
2023-04-01T05:25:49.772Z,5.60
2023-04-01T05:28:17.121Z,5.65
2023-04-01T05:30:46.234Z,5.70
2023-04-01T05:33:24.874Z,5.20
2023-04-01T05:35:51.975Z,7.70
2023-04-01T05:38:18.938Z,5.30
2023-04-01T05:40:46.678Z,5.43
2023-04-01T05:43:13.764Z,7.60
2023-04-01T05:45:41.620Z,5.43
2023-04-01T05:48:14.327Z,6.07
2023-04-01T05:50:42.841Z,5.88
2023-04-01T05:53:11.338Z,6.10
2023-04-01T05:55:40.927Z,6.53
2023-04-01T05:58:08.190Z,6.63
2023-04-01T06:00:37.592Z,5.97
2023-04-01T06:03:04.983Z,6.65
2023-04-01T06:05:37.809Z,6.60
2023-04-01T06:08:11.162Z,6.50
2023-04-01T06:10:47.093Z,6.90
2023-04-01T06:13:39.927Z,6.20
2023-04-01T06:16:23.363Z,6.38
2023-04-01T06:18:55.763Z,6.63
2023-04-01T06:21:38.541Z,7.45
2023-04-01T06:24:38.868Z,6.75
2023-04-01T06:27:39.775Z,6.05
2023-04-01T06:30:44.293Z,6.15
2023-04-01T06:33:29.967Z,6.10
2023-04-01T06:36:32.482Z,5.72
2023-04-01T06:39:31.592Z,6.75
2023-04-01T06:42:10.733Z,7.07
2023-04-01T06:45:06.450Z,7.05
2023-04-01T06:48:04.329Z,7.43
2023-04-01T06:51:14.727Z,7.43
2023-04-01T06:54:21.647Z,7.72
2023-04-01T06:57:41.135Z,6.95
2023-04-01T07:00:24.335Z,6.90
2023-04-01T07:03:00.459Z,7.00
2023-04-01T07:05:27.487Z,6.38
2023-04-01T07:07:56.885Z,7.05
2023-04-01T07:10:43.882Z,7.15
2023-04-01T07:13:49.382Z,7.05
2023-04-01T07:16:40.395Z,7.40
2023-04-01T07:19:17.885Z,7.70
2023-04-01T07:22:06.003Z,7.22
2023-04-01T07:24:59.006Z,6.70
2023-04-01T07:27:26.754Z,7.40
2023-04-01T07:29:53.973Z,7.78
2023-04-01T07:32:30.731Z,7.30
2023-04-01T07:35:14.197Z,7.80
2023-04-01T07:38:02.739Z,8.52
2023-04-01T07:40:52.980Z,7.18
2023-04-01T07:43:39.069Z,7.75
2023-04-01T07:47:04.548Z,7.70
2023-04-01T07:49:57.032Z,8.45
2023-04-01T07:52:49.346Z,7.45
2023-04-01T07:55:31.854Z,7.18
2023-04-01T07:58:21.581Z,6.70
2023-04-01T08:01:13.707Z,6.88
2023-04-01T08:03:50.750Z,5.88
2023-04-01T08:06:42.661Z,6.88
2023-04-01T08:09:19.830Z,7.32
2023-04-01T08:12:19.109Z,8.07
2023-04-01T08:15:04.273Z,7.95
2023-04-01T08:17:59.012Z,8.30
2023-04-01T08:20:51.451Z,7.45
2023-04-01T08:23:24.799Z,9.15
2023-04-01T08:26:14.971Z,8.30
2023-04-01T08:28:55.429Z,11.35
2023-04-01T08:31:37.768Z,8.77
2023-04-01T08:34:06.474Z,10.20
2023-04-01T08:36:37.277Z,9.63
2023-04-01T08:39:20.599Z,10.27
2023-04-01T08:42:16.277Z,10.63
2023-04-01T08:45:01.699Z,10.23
2023-04-01T08:47:55.432Z,10.13
2023-04-01T08:50:47.704Z,10.32
2023-04-01T08:53:52.013Z,8.83
2023-04-01T08:56:47.853Z,10.25
2023-04-01T08:59:26.867Z,10.07
2023-04-01T09:02:05.761Z,9.02
2023-04-01T09:05:03.189Z,8.70
2023-04-01T09:07:36.484Z,8.43
2023-04-01T09:10:25.155Z,7.55
2023-04-01T09:13:16.067Z,8.40
2023-04-01T09:16:01.966Z,9.10
2023-04-01T09:18:41.980Z,8.60
2023-04-01T09:21:26.252Z,7.53
2023-04-01T09:24:18.402Z,8.63
2023-04-01T09:29:45.297Z,8.57
2023-04-01T09:32:15.812Z,8.75
2023-04-01T09:35:17.700Z,8.15
2023-04-01T09:38:00.120Z,8.10
2023-04-01T09:40:27.453Z,8.48
2023-04-01T09:43:11.736Z,8.30
2023-04-01T09:45:55.178Z,7.28
2023-04-01T09:48:40.606Z,7.10
2023-04-01T09:51:50.962Z,8.63
2023-04-01T09:54:37.442Z,8.35
2023-04-01T09:57:51.840Z,9.45
2023-04-01T10:01:08.680Z,9.13
2023-04-01T10:04:12.416Z,9.05
2023-04-01T10:06:48.517Z,11.02
2023-04-01T10:09:43.788Z,9.55
2023-04-01T10:12:17.757Z,7.65
2023-04-01T10:15:12.633Z,7.68
2023-04-01T10:18:17.822Z,7.65
2023-04-01T10:20:52.265Z,7.18
2023-04-01T10:23:57.652Z,7.03
2023-04-01T10:26:34.019Z,6.88
2023-04-01T10:29:32.736Z,6.75
2023-04-01T10:32:34.253Z,7.15
2023-04-01T10:35:09.456Z,7.50
2023-04-01T10:37:51.915Z,7.40
2023-04-01T10:40:26.622Z,9.07
2023-04-01T10:43:39.037Z,8.18
2023-04-01T10:46:30.003Z,9.20
2023-04-01T10:49:21.679Z,8.63
2023-04-01T10:52:22.287Z,8.50
2023-04-01T10:55:46.300Z,6.75
2023-04-01T10:59:09.086Z,7.13
2023-04-01T11:02:21.562Z,8.10
2023-04-01T11:05:34.200Z,8.50
2023-04-01T11:08:27.562Z,8.77
2023-04-01T11:11:01.099Z,9.05
2023-04-01T11:13:48.514Z,9.32
2023-04-01T11:16:35.828Z,10.15
2023-04-01T11:19:31.559Z,11.77
2023-04-01T11:22:33.557Z,8.52
2023-04-01T11:25:23.144Z,9.60
2023-04-01T11:28:49.220Z,9.90
2023-04-01T11:31:19.881Z,10.95
2023-04-01T11:34:24.406Z,10.30
2023-04-01T11:37:04.530Z,10.65
2023-04-01T11:39:38.957Z,10.40
2023-04-01T11:43:02.560Z,10.88
2023-04-01T11:46:03.848Z,10.57
2023-04-01T11:48:45.980Z,10.23
2023-04-01T11:51:26.188Z,9.55
2023-04-01T11:54:15.802Z,10.00
2023-04-01T11:57:24.138Z,8.88
2023-04-01T12:00:32.600Z,10.45
2023-04-01T12:03:08.668Z,9.15
2023-04-01T12:05:41.815Z,7.47
2023-04-01T12:08:14.408Z,8.75
2023-04-01T12:10:54.555Z,9.00
2023-04-01T12:13:46.735Z,8.77
2023-04-01T12:16:47.050Z,7.05
2023-04-01T12:19:36.090Z,8.13
2023-04-01T12:22:13.495Z,7.40
2023-04-01T12:24:50.448Z,7.93
2023-04-01T12:27:48.959Z,7.03
2023-04-01T12:30:16.723Z,8.45
2023-04-01T12:33:14.229Z,8.52
2023-04-01T12:35:53.679Z,9.20
2023-04-01T12:38:23.732Z,9.15
2023-04-01T12:40:58.906Z,8.82
2023-04-01T12:43:35.376Z,7.93
2023-04-01T12:46:27.778Z,9.00
2023-04-01T12:49:34.681Z,9.27
2023-04-01T12:52:04.314Z,8.35
2023-04-01T12:55:09.784Z,9.07
2023-04-01T12:57:59.970Z,8.65
2023-04-01T13:00:56.318Z,7.90
2023-04-01T13:03:23.645Z,8.07
2023-04-01T13:06:24.454Z,6.53
2023-04-01T13:09:20.121Z,8.60
2023-04-01T13:12:07.011Z,8.00
2023-04-01T13:15:07.515Z,8.68
2023-04-01T13:18:12.224Z,8.60
2023-04-01T13:20:44.767Z,8.77
2023-04-01T13:23:35.177Z,10.82
2023-04-01T13:26:28.543Z,8.27
2023-04-01T13:29:17.912Z,9.13
2023-04-01T13:32:03.584Z,7.60
2023-04-01T13:34:45.637Z,8.68
2023-04-01T13:39:58.720Z,6.40
2023-04-01T13:42:30.320Z,7.72
2023-04-01T13:45:04.350Z,7.15
2023-04-01T13:47:43.631Z,7.25
2023-04-01T13:50:19.337Z,7.30
2023-04-01T13:53:05.034Z,7.13
2023-04-01T13:55:56.468Z,8.68
2023-04-01T13:58:35.478Z,6.20
2023-04-01T14:01:31.578Z,7.30
2023-04-01T14:04:25.022Z,5.68
2023-04-01T14:07:19.895Z,5.53
2023-04-01T14:10:24.577Z,5.43
2023-04-01T14:13:13.862Z,6.63
2023-04-01T14:15:48.876Z,5.75
2023-04-01T14:18:47.513Z,5.85
2023-04-01T14:21:48.842Z,7.07
2023-04-01T14:24:31.241Z,6.40
2023-04-01T14:27:20.606Z,6.22
2023-04-01T14:29:59.322Z,10.63
2023-04-01T14:32:41.449Z,6.88
2023-04-01T14:35:20.386Z,6.43
2023-04-01T14:37:59.279Z,5.95
2023-04-01T14:40:29.719Z,5.72
2023-04-01T14:43:14.982Z,7.03
2023-04-01T14:46:11.702Z,7.55
2023-04-01T14:48:52.540Z,6.13
2023-04-01T14:51:22.331Z,6.57
2023-04-01T14:54:07.477Z,6.97
2023-04-01T14:57:14.831Z,6.13
2023-04-01T14:59:47.919Z,6.65
2023-04-01T15:02:52.396Z,7.63
2023-04-01T15:05:51.585Z,6.72
2023-04-01T15:08:33.573Z,6.85
2023-04-01T15:16:34.552Z,9.48
2023-04-01T15:19:30.234Z,8.52
2023-04-01T15:22:25.267Z,8.63
2023-04-01T15:25:04.455Z,9.05
2023-04-01T15:27:43.226Z,9.20
2023-04-01T15:30:16.786Z,9.20
2023-04-01T15:33:19.107Z,9.70
2023-04-01T15:36:04.843Z,9.90
2023-04-01T15:38:55.927Z,11.38
2023-04-01T15:41:29.239Z,7.50
2023-04-01T15:43:56.399Z,8.13
2023-04-01T15:46:42.202Z,8.50
2023-04-01T15:49:09.251Z,10.05
2023-04-01T15:51:54.553Z,9.77
2023-04-01T15:54:47.460Z,8.02
2023-04-01T15:57:37.017Z,9.30
2023-04-01T16:00:27.430Z,9.43
2023-04-01T16:03:02.123Z,8.90
2023-04-01T16:05:44.201Z,8.77
2023-04-01T16:11:08.391Z,8.50
2023-04-01T16:13:57.794Z,7.85
2023-04-01T16:16:32.445Z,8.55
2023-04-01T16:19:13.400Z,10.70
2023-04-01T16:21:46.623Z,9.20
2023-04-01T16:24:26.307Z,8.52
2023-04-01T16:26:58.994Z,9.52
2023-04-01T16:29:41.602Z,8.82
2023-04-01T16:32:32.777Z,9.68
2023-04-01T16:35:14.996Z,9.35
2023-04-01T16:37:53.320Z,9.80
2023-04-01T16:40:45.077Z,9.02
2023-04-01T16:43:22.946Z,9.68
2023-04-01T16:46:17.062Z,7.55
2023-04-01T16:49:09.965Z,10.60
2023-04-01T16:51:47.716Z,8.80
2023-04-01T16:54:48.004Z,9.48
2023-04-01T16:57:23.561Z,9.88
2023-04-01T17:00:18.714Z,9.07
2023-04-01T17:02:53.477Z,8.68
2023-04-01T17:05:20.615Z,9.18
2023-04-01T17:08:02.236Z,9.38
2023-04-01T17:10:53.554Z,9.45
2023-04-01T17:13:28.286Z,9.63
2023-04-01T17:16:32.001Z,9.63
2023-04-01T17:19:23.971Z,8.55
2023-04-01T17:22:14.092Z,9.93
2023-04-01T17:24:53.220Z,9.07
2023-04-01T17:27:29.864Z,9.80
2023-04-01T17:30:21.783Z,7.38
2023-04-01T17:33:11.695Z,8.88
2023-04-01T17:35:44.237Z,8.05
2023-04-01T17:38:35.857Z,12.13
2023-04-01T17:41:26.558Z,9.40
2023-04-01T17:44:34.088Z,8.20
2023-04-01T17:47:07.109Z,10.05
2023-04-01T17:49:45.902Z,9.88
2023-04-01T17:52:41.261Z,8.25
2023-04-01T17:55:36.189Z,9.15
2023-04-01T17:58:21.290Z,8.00
2023-04-01T18:01:14.526Z,7.78
2023-04-01T18:04:01.360Z,8.23
2023-04-01T18:06:43.061Z,7.65
2023-04-01T18:09:14.816Z,7.43
2023-04-01T18:11:53.753Z,7.32
2023-04-01T18:14:54.766Z,7.00
2023-04-01T18:17:40.287Z,7.20
2023-04-01T18:20:07.358Z,7.72
2023-04-01T18:22:56.410Z,8.15
2023-04-01T18:25:43.538Z,7.68
2023-04-01T18:28:16.486Z,8.32
2023-04-01T18:30:44.082Z,6.15
2023-04-01T18:33:20.002Z,6.93
2023-04-01T18:36:11.886Z,7.38
2023-04-01T18:38:43.040Z,8.70
2023-04-01T18:41:29.759Z,9.07
2023-04-01T18:44:21.337Z,7.22
2023-04-01T18:47:12.284Z,8.95
2023-04-01T18:49:48.102Z,7.80
2023-04-01T18:52:15.145Z,7.78
2023-04-01T18:55:09.414Z,6.30
2023-04-01T18:57:59.901Z,8.32
2023-04-01T19:00:46.102Z,7.43
2023-04-01T19:03:22.170Z,7.57
2023-04-01T19:05:51.329Z,7.63
2023-04-01T19:08:26.877Z,8.13
2023-04-01T19:10:59.753Z,9.45
2023-04-01T19:13:51.119Z,6.85
2023-04-01T19:16:37.800Z,8.43
2023-04-01T19:19:27.996Z,7.28
2023-04-01T19:21:58.529Z,7.50
2023-04-01T19:24:25.718Z,7.25
2023-04-01T19:27:25.868Z,8.98
2023-04-01T19:30:05.678Z,7.38
2023-04-01T19:32:50.594Z,7.20
2023-04-01T19:35:40.944Z,6.70
2023-04-01T19:38:21.746Z,7.63
2023-04-01T19:40:54.762Z,7.68
2023-04-01T19:43:59.561Z,8.23
2023-04-01T19:47:12.543Z,8.48
2023-04-01T19:49:45.615Z,7.22
2023-04-01T19:52:25.135Z,6.65
2023-04-01T19:54:58.388Z,6.43
2023-04-01T19:57:52.636Z,6.55
2023-04-01T20:00:28.580Z,6.22
2023-04-01T20:03:43.383Z,7.05
2023-04-01T20:06:21.907Z,8.07
2023-04-01T20:09:07.181Z,6.68
2023-04-01T20:12:00.193Z,7.38
2023-04-01T20:14:52.320Z,5.80
2023-04-01T20:17:24.500Z,9.95
2023-04-01T20:20:11.265Z,8.00
2023-04-01T20:22:47.588Z,6.78
2023-04-01T20:25:28.686Z,6.55
2023-04-01T20:28:03.205Z,7.68
2023-04-01T20:30:46.076Z,7.18
2023-04-01T20:33:47.008Z,6.28
2023-04-01T20:36:26.036Z,6.57
2023-04-01T20:39:21.828Z,6.78
2023-04-01T20:42:14.022Z,6.45
2023-04-01T20:47:29.130Z,6.72
2023-04-01T20:50:18.321Z,5.28
2023-04-01T20:53:17.784Z,6.97
2023-04-01T20:55:48.570Z,8.25
2023-04-01T20:58:41.709Z,5.75
2023-04-01T21:01:20.649Z,8.07
2023-04-01T21:04:23.373Z,6.18
2023-04-01T21:07:15.132Z,5.75
2023-04-01T21:09:53.880Z,6.25
2023-04-01T21:12:42.250Z,7.15
2023-04-01T21:15:16.634Z,6.00
2023-04-01T21:18:28.427Z,5.72
2023-04-01T21:21:18.650Z,7.63
2023-04-01T21:24:07.881Z,6.18
2023-04-01T21:26:51.149Z,6.20
2023-04-01T21:29:41.697Z,7.00
2023-04-01T21:32:37.596Z,6.90
2023-04-01T21:35:19.465Z,5.50
2023-04-01T21:43:30.983Z,6.10
2023-04-01T21:46:29.661Z,6.25
2023-04-01T21:49:09.336Z,6.38
2023-04-01T21:51:52.718Z,6.50
2023-04-01T21:54:42.288Z,7.20
2023-04-01T21:57:19.175Z,6.43
2023-04-01T22:00:06.577Z,7.20
2023-04-01T22:02:52.408Z,8.50
2023-04-01T22:05:22.689Z,6.10
2023-04-01T22:08:00.550Z,5.28
2023-04-01T22:10:40.404Z,6.63
2023-04-01T22:13:19.789Z,6.60
2023-04-01T22:15:56.939Z,5.63
2023-04-01T22:18:30.049Z,6.28
2023-04-01T22:21:06.448Z,6.35
2023-04-01T22:23:46.963Z,5.97
2023-04-01T22:26:24.082Z,5.03
2023-04-01T22:29:00.317Z,7.20
2023-04-01T22:31:35.016Z,5.55
2023-04-01T22:34:23.669Z,6.30
2023-04-01T22:37:09.490Z,4.60
2023-04-01T22:39:49.755Z,6.00
2023-04-01T22:42:35.475Z,6.38
2023-04-01T22:45:14.924Z,5.88
2023-04-01T22:47:44.714Z,6.20
2023-04-01T22:50:17.162Z,5.80
2023-04-01T22:52:46.855Z,6.60
2023-04-01T22:55:23.528Z,5.05
2023-04-01T22:57:58.597Z,6.07
2023-04-01T23:00:29.199Z,7.20
2023-04-01T23:03:06.351Z,5.70
2023-04-01T23:05:33.631Z,5.85
2023-04-01T23:08:22.593Z,6.15
2023-04-01T23:10:55.261Z,5.25
2023-04-01T23:13:25.862Z,7.18
2023-04-01T23:15:53.355Z,7.18
2023-04-01T23:18:49.398Z,5.60
2023-04-01T23:21:46.234Z,6.65
2023-04-01T23:24:48.898Z,7.43
2023-04-01T23:27:20.414Z,6.97
2023-04-01T23:29:47.427Z,6.20
2023-04-01T23:32:18.403Z,6.65
2023-04-01T23:34:52.425Z,6.73
2023-04-01T23:37:20.339Z,6.78
2023-04-01T23:39:48.654Z,6.65
2023-04-01T23:42:25.422Z,6.15
2023-04-01T23:44:57.850Z,6.68
2023-04-01T23:47:27.683Z,6.45
2023-04-01T23:49:59.316Z,6.47
2023-04-01T23:52:31.947Z,6.55
2023-04-01T23:55:01.430Z,6.72
2023-04-01T23:57:38.105Z,6.70
